createdAt,value
2023-04-16T00:01:22.361Z,6.51
2023-04-16T00:03:51.955Z,6.55
2023-04-16T00:06:20.113Z,6.57
2023-04-16T00:08:48.002Z,6.56
2023-04-16T00:11:16.151Z,6.54
2023-04-16T00:13:44.131Z,6.59
2023-04-16T00:16:12.016Z,6.60
2023-04-16T00:18:40.129Z,6.56
2023-04-16T00:21:09.504Z,6.55
2023-04-16T00:23:37.977Z,6.56
2023-04-16T00:26:06.067Z,6.51
2023-04-16T00:28:33.934Z,6.57
2023-04-16T00:31:02.453Z,6.59
2023-04-16T00:33:30.927Z,6.55
2023-04-16T00:35:58.881Z,6.51
2023-04-16T00:38:30.452Z,6.53
2023-04-16T00:40:58.800Z,6.58
2023-04-16T00:43:27.869Z,6.52
2023-04-16T00:45:58.014Z,6.60
2023-04-16T00:48:27.863Z,6.58
2023-04-16T00:50:56.273Z,6.55
2023-04-16T00:53:24.708Z,6.48
2023-04-16T00:55:54.655Z,6.52
2023-04-16T00:58:23.000Z,6.51
2023-04-16T01:00:51.900Z,6.53
2023-04-16T01:03:19.876Z,6.50
2023-04-16T01:05:49.335Z,6.56
2023-04-16T01:08:18.261Z,6.53
2023-04-16T01:10:46.481Z,6.53
2023-04-16T01:13:15.861Z,6.56
2023-04-16T01:15:43.930Z,6.49
2023-04-16T01:18:16.161Z,6.51
2023-04-16T01:20:45.502Z,6.55
2023-04-16T01:23:13.737Z,6.50
2023-04-16T01:25:41.691Z,6.52
2023-04-16T01:28:09.722Z,6.59
2023-04-16T01:30:37.838Z,6.54
2023-04-16T01:33:30.751Z,6.56
2023-04-16T01:36:00.011Z,6.51
2023-04-16T01:38:27.871Z,6.54
2023-04-16T01:40:57.788Z,6.53
2023-04-16T01:43:25.656Z,6.52
2023-04-16T01:45:54.985Z,6.52
2023-04-16T01:48:23.053Z,6.53
2023-04-16T01:50:50.916Z,6.52
2023-04-16T01:53:20.129Z,6.59
2023-04-16T01:55:47.946Z,6.54
2023-04-16T01:58:15.909Z,6.52
2023-04-16T02:00:44.064Z,6.53
2023-04-16T02:03:12.234Z,6.49
2023-04-16T02:05:40.287Z,6.59
2023-04-16T02:08:08.255Z,6.52
2023-04-16T02:10:37.913Z,6.55
2023-04-16T02:13:06.084Z,6.56
2023-04-16T02:15:36.920Z,6.49
2023-04-16T02:18:04.907Z,6.49
2023-04-16T02:20:33.763Z,6.51
2023-04-16T02:23:01.810Z,6.54
2023-04-16T02:25:30.086Z,6.49
2023-04-16T02:28:00.487Z,6.52
2023-04-16T02:30:36.665Z,6.46
2023-04-16T02:33:07.270Z,6.51
2023-04-16T02:35:36.490Z,6.51
2023-04-16T02:38:05.386Z,6.54
2023-04-16T02:40:33.500Z,6.48
2023-04-16T02:43:02.669Z,6.41
2023-04-16T02:45:31.636Z,6.43
2023-04-16T02:48:00.617Z,6.50
2023-04-16T02:50:28.565Z,6.52
2023-04-16T02:52:56.453Z,6.44
2023-04-16T02:55:24.381Z,6.46
2023-04-16T02:57:52.935Z,6.49
2023-04-16T03:00:22.683Z,6.48
2023-04-16T03:02:50.819Z,6.45
2023-04-16T03:05:19.008Z,6.49
2023-04-16T03:07:47.794Z,6.50
2023-04-16T03:10:16.730Z,6.46
2023-04-16T03:12:44.574Z,6.48
2023-04-16T03:15:12.756Z,6.46
2023-04-16T03:17:42.026Z,6.49
2023-04-16T03:20:11.262Z,6.41
2023-04-16T03:22:39.534Z,6.40
2023-04-16T03:25:08.264Z,6.46
2023-04-16T03:27:36.522Z,6.48
2023-04-16T03:30:05.619Z,6.48
2023-04-16T03:32:36.124Z,6.50
2023-04-16T03:35:08.857Z,6.50
2023-04-16T03:37:38.220Z,6.41
2023-04-16T03:40:07.373Z,6.38
2023-04-16T03:42:35.723Z,6.45
2023-04-16T03:45:04.117Z,6.42
2023-04-16T03:47:33.032Z,6.39
2023-04-16T03:50:04.028Z,6.45
2023-04-16T03:52:33.250Z,6.43
2023-04-16T03:55:01.078Z,6.40
2023-04-16T03:57:31.695Z,6.41
2023-04-16T04:00:06.876Z,6.44
2023-04-16T04:02:54.586Z,6.40
2023-04-16T04:05:24.062Z,6.39
2023-04-16T04:07:54.481Z,6.33
2023-04-16T04:10:22.408Z,6.33
2023-04-16T04:12:50.401Z,6.39
2023-04-16T04:15:18.575Z,6.37
2023-04-16T04:17:46.491Z,6.36
2023-04-16T04:20:14.626Z,6.41
2023-04-16T04:22:45.554Z,6.40
2023-04-16T04:25:15.207Z,6.41
2023-04-16T04:27:44.174Z,6.39
2023-04-16T04:30:13.134Z,6.37
2023-04-16T04:32:42.378Z,6.41
2023-04-16T04:35:11.075Z,6.40
2023-04-16T04:37:38.996Z,6.34
2023-04-16T04:40:16.007Z,6.35
2023-04-16T04:42:44.336Z,6.38
2023-04-16T04:45:12.646Z,6.37
2023-04-16T04:47:42.097Z,6.39
2023-04-16T04:50:10.867Z,6.44
2023-04-16T04:52:39.181Z,6.35
2023-04-16T04:55:09.120Z,6.35
2023-04-16T04:57:38.393Z,6.35
2023-04-16T05:00:08.228Z,6.39
2023-04-16T05:02:44.745Z,6.26
2023-04-16T05:05:12.695Z,6.35
2023-04-16T05:07:40.554Z,6.35
2023-04-16T05:10:09.965Z,6.35
2023-04-16T05:12:40.006Z,6.33
2023-04-16T05:15:08.913Z,6.34
2023-04-16T05:17:36.778Z,6.29
2023-04-16T05:20:05.114Z,6.21
2023-04-16T05:22:32.957Z,6.20
2023-04-16T05:25:00.816Z,6.27
2023-04-16T05:27:28.731Z,6.26
2023-04-16T05:29:57.933Z,6.14
2023-04-16T05:32:27.867Z,6.22
2023-04-16T05:34:55.890Z,6.18
2023-04-16T05:37:23.768Z,6.22
2023-04-16T05:39:51.586Z,6.20
2023-04-16T05:42:19.419Z,6.22
2023-04-16T05:44:47.222Z,6.24
2023-04-16T05:47:17.392Z,6.17
2023-04-16T05:49:45.405Z,6.23
2023-04-16T05:52:13.444Z,6.18
2023-04-16T05:54:41.305Z,6.18
2023-04-16T05:57:09.152Z,6.12
2023-04-16T05:59:37.008Z,6.19
2023-04-16T06:02:04.944Z,6.17
2023-04-16T06:04:35.689Z,6.16
2023-04-16T06:07:03.554Z,6.21
2023-04-16T06:09:31.600Z,6.19
2023-04-16T06:11:59.469Z,6.18
2023-04-16T06:14:27.317Z,6.19
2023-04-16T06:16:55.191Z,6.17
2023-04-16T06:19:23.024Z,6.20
2023-04-16T06:21:52.378Z,6.20
2023-04-16T06:24:20.766Z,6.19
2023-04-16T06:26:48.593Z,6.17
2023-04-16T06:29:16.551Z,6.19
2023-04-16T06:31:44.590Z,6.14
2023-04-16T06:34:12.507Z,6.23
2023-04-16T06:36:40.374Z,6.20
2023-04-16T06:39:09.942Z,6.22
2023-04-16T06:41:40.294Z,6.19
2023-04-16T06:44:08.176Z,6.20
2023-04-16T06:46:36.340Z,6.19
2023-04-16T06:49:04.440Z,6.18
2023-04-16T06:51:32.578Z,6.18
2023-04-16T06:54:00.832Z,6.20
2023-04-16T06:56:30.023Z,6.23
2023-04-16T06:58:58.974Z,6.24
2023-04-16T07:01:27.002Z,6.17
2023-04-16T07:03:55.666Z,6.18
2023-04-16T07:06:23.720Z,6.21
2023-04-16T07:08:51.625Z,6.25
2023-04-16T07:11:20.873Z,6.26
2023-04-16T07:13:51.112Z,6.21
2023-04-16T07:16:19.115Z,6.25
2023-04-16T07:18:47.284Z,6.26
2023-04-16T07:21:15.123Z,6.26
2023-04-16T07:23:43.088Z,6.33
2023-04-16T07:26:11.663Z,6.22
2023-04-16T07:28:39.831Z,6.25
2023-04-16T07:31:09.379Z,6.30
2023-04-16T07:33:37.268Z,6.28
2023-04-16T07:36:05.561Z,6.33
2023-04-16T07:38:34.685Z,6.28
2023-04-16T07:41:02.769Z,6.27
2023-04-16T07:43:30.700Z,6.29
2023-04-16T07:45:59.516Z,6.34
2023-04-16T07:48:28.828Z,6.31
2023-04-16T07:50:56.871Z,6.41
2023-04-16T07:53:24.629Z,6.41
2023-04-16T07:55:52.493Z,6.42
2023-04-16T07:58:20.499Z,6.41
2023-04-16T08:00:50.383Z,6.41
2023-04-16T08:03:19.070Z,6.44
2023-04-16T08:05:48.342Z,6.41
2023-04-16T08:08:16.106Z,6.39
2023-04-16T08:10:44.056Z,6.46
2023-04-16T08:13:11.882Z,6.43
2023-04-16T08:15:39.858Z,6.47
2023-04-16T08:18:12.751Z,6.43
2023-04-16T08:20:40.709Z,6.44
2023-04-16T08:23:09.938Z,6.41
2023-04-16T08:25:37.770Z,6.43
2023-04-16T08:28:06.089Z,6.45
2023-04-16T08:30:34.703Z,6.44
2023-04-16T08:33:02.930Z,6.44
2023-04-16T08:35:30.955Z,6.43
2023-04-16T08:38:02.200Z,6.39
2023-04-16T08:40:33.654Z,6.40
2023-04-16T08:43:03.909Z,6.45
2023-04-16T08:45:36.008Z,6.41
2023-04-16T08:48:06.746Z,6.49
2023-04-16T08:50:34.966Z,6.51
2023-04-16T08:53:06.185Z,6.53
2023-04-16T08:55:38.537Z,6.51
2023-04-16T08:58:10.804Z,6.43
2023-04-16T09:00:39.016Z,6.52
2023-04-16T09:03:07.510Z,6.62
2023-04-16T09:05:36.142Z,6.66
2023-04-16T09:08:04.028Z,6.59
2023-04-16T09:10:32.321Z,6.67
2023-04-16T09:13:01.783Z,6.72
2023-04-16T09:15:30.201Z,6.69
2023-04-16T09:17:58.562Z,6.72
2023-04-16T09:20:26.407Z,6.70
2023-04-16T09:22:54.265Z,6.75
2023-04-16T09:25:23.500Z,6.74
2023-04-16T09:27:51.945Z,6.77
2023-04-16T09:30:23.157Z,6.72
2023-04-16T09:32:51.792Z,6.70
2023-04-16T09:35:20.414Z,6.79
2023-04-16T09:37:56.979Z,6.77
2023-04-16T09:40:30.578Z,6.83
2023-04-16T09:43:00.718Z,6.87
2023-04-16T09:45:33.971Z,6.86
2023-04-16T09:48:05.857Z,6.88
2023-04-16T09:50:34.321Z,6.83
2023-04-16T09:53:04.613Z,6.84
2023-04-16T09:55:33.972Z,6.87
2023-04-16T09:58:03.001Z,6.86
2023-04-16T10:00:32.828Z,6.83
2023-04-16T10:03:07.929Z,6.84
2023-04-16T10:05:36.578Z,6.85
2023-04-16T10:08:05.401Z,6.92
2023-04-16T10:10:33.694Z,6.87
2023-04-16T10:13:02.599Z,6.94
2023-04-16T10:15:30.656Z,6.91
2023-04-16T10:18:00.387Z,6.87
2023-04-16T10:20:28.757Z,6.87
2023-04-16T10:22:57.691Z,6.94
2023-04-16T10:25:26.219Z,6.93
2023-04-16T10:27:54.158Z,6.95
2023-04-16T10:30:22.816Z,7.02
2023-04-16T10:32:51.419Z,6.97
2023-04-16T10:35:21.971Z,6.97
2023-04-16T10:37:51.552Z,6.88
2023-04-16T10:40:27.021Z,6.90
2023-04-16T10:42:56.694Z,6.90
2023-04-16T10:45:31.198Z,6.94
2023-04-16T10:47:59.152Z,6.92
2023-04-16T10:50:35.669Z,6.94
2023-04-16T10:53:19.873Z,6.97
2023-04-16T10:56:13.495Z,6.95
2023-04-16T10:58:41.545Z,7.05
2023-04-16T11:01:13.663Z,7.06
2023-04-16T11:03:47.750Z,7.10
2023-04-16T11:06:19.077Z,7.11
2023-04-16T11:08:54.445Z,7.13
2023-04-16T11:11:23.308Z,7.12
2023-04-16T11:13:51.237Z,7.18
2023-04-16T11:16:19.097Z,7.20
2023-04-16T11:18:51.506Z,7.17
2023-04-16T11:21:21.516Z,7.24
2023-04-16T11:23:50.633Z,7.31
2023-04-16T11:26:26.330Z,7.27
2023-04-16T11:28:55.536Z,7.31
2023-04-16T11:31:24.384Z,7.33
2023-04-16T11:33:52.302Z,7.27
2023-04-16T11:36:21.486Z,7.34
2023-04-16T11:38:49.365Z,7.37
2023-04-16T11:41:23.464Z,7.39
2023-04-16T11:43:51.479Z,7.51
2023-04-16T11:46:27.459Z,7.48
2023-04-16T11:48:56.650Z,7.43
2023-04-16T11:51:25.946Z,7.53
2023-04-16T11:53:54.698Z,7.62
2023-04-16T11:56:29.410Z,7.69
2023-04-16T11:59:11.492Z,7.72
2023-04-16T12:01:41.246Z,7.72
2023-04-16T12:04:09.989Z,7.78
2023-04-16T12:06:39.635Z,7.80
2023-04-16T12:09:31.658Z,7.65
2023-04-16T12:11:59.481Z,7.86
2023-04-16T12:14:27.393Z,7.82
2023-04-16T12:16:55.397Z,7.88
2023-04-16T12:19:23.316Z,7.87
2023-04-16T12:21:54.621Z,7.84
2023-04-16T12:24:23.984Z,7.81
2023-04-16T12:26:58.022Z,7.76
2023-04-16T12:29:27.945Z,7.82
2023-04-16T12:31:55.765Z,7.76
2023-04-16T12:34:27.707Z,7.78
2023-04-16T12:37:13.592Z,7.72
2023-04-16T12:39:42.204Z,7.77
2023-04-16T12:42:11.390Z,7.76
2023-04-16T12:44:39.355Z,7.80
2023-04-16T12:47:07.223Z,7.77
2023-04-16T12:49:35.085Z,7.72
2023-04-16T12:52:03.507Z,7.69
2023-04-16T12:54:33.355Z,7.76
2023-04-16T12:57:01.272Z,7.81
2023-04-16T12:59:29.052Z,7.78
2023-04-16T13:01:57.017Z,7.72
2023-04-16T13:04:25.956Z,7.63
2023-04-16T13:06:54.071Z,7.60
2023-04-16T13:09:22.028Z,7.60
2023-04-16T13:11:51.404Z,7.69
2023-04-16T13:14:19.314Z,7.68
2023-04-16T13:16:47.168Z,7.70
2023-04-16T13:19:15.888Z,7.69
2023-04-16T13:21:43.866Z,7.60
2023-04-16T13:24:11.816Z,7.69
2023-04-16T13:26:39.633Z,7.73
2023-04-16T13:29:09.106Z,7.75
2023-04-16T13:31:37.331Z,7.75
2023-04-16T13:34:05.707Z,7.67
2023-04-16T13:36:34.085Z,7.70
2023-04-16T13:39:04.602Z,7.70
2023-04-16T13:41:32.553Z,7.58
2023-04-16T13:44:00.380Z,7.70
2023-04-16T13:46:30.263Z,7.68
2023-04-16T13:48:58.166Z,7.67
2023-04-16T13:51:27.439Z,7.59
2023-04-16T13:53:55.688Z,7.68
2023-04-16T13:56:23.670Z,7.67
2023-04-16T13:58:52.211Z,7.70
2023-04-16T14:01:20.188Z,7.67
2023-04-16T14:03:50.194Z,7.67
2023-04-16T14:06:18.503Z,7.62
2023-04-16T14:08:46.516Z,7.60
2023-04-16T14:11:14.450Z,7.66
2023-04-16T14:13:42.951Z,7.69
2023-04-16T14:16:10.816Z,7.69
2023-04-16T14:18:42.171Z,7.70
2023-04-16T14:21:11.328Z,7.68
2023-04-16T14:23:39.353Z,7.66
2023-04-16T14:26:07.156Z,7.66
2023-04-16T14:28:35.550Z,7.67
2023-04-16T14:31:03.421Z,7.67
2023-04-16T14:33:32.329Z,7.67
2023-04-16T14:36:02.783Z,7.68
2023-04-16T14:38:32.780Z,7.57
2023-04-16T14:41:01.234Z,7.57
2023-04-16T14:43:29.468Z,7.59
2023-04-16T14:45:58.664Z,7.65
2023-04-16T14:48:26.617Z,7.56
2023-04-16T14:50:54.970Z,7.51
2023-04-16T14:53:24.752Z,7.56
2023-04-16T14:55:54.355Z,7.57
2023-04-16T14:58:22.699Z,7.55
2023-04-16T15:00:50.576Z,7.52
2023-04-16T15:03:18.738Z,7.57
2023-04-16T15:05:50.778Z,7.54
2023-04-16T15:08:18.758Z,7.56
2023-04-16T15:10:46.621Z,7.47
2023-04-16T15:13:16.028Z,7.53
2023-04-16T15:15:44.531Z,7.52
2023-04-16T15:18:12.412Z,7.49
2023-04-16T15:20:40.659Z,7.46
2023-04-16T15:23:08.520Z,7.48
2023-04-16T15:25:36.563Z,7.45
2023-04-16T15:28:04.600Z,7.46
2023-04-16T15:30:34.023Z,7.47
2023-04-16T15:33:02.045Z,7.41
2023-04-16T15:35:29.893Z,7.41
2023-04-16T15:37:57.710Z,7.49
2023-04-16T15:40:25.907Z,7.49
2023-04-16T15:42:53.755Z,7.48
2023-04-16T15:45:21.898Z,7.41
2023-04-16T15:47:51.603Z,7.45
2023-04-16T15:50:20.129Z,7.46
2023-04-16T15:52:48.691Z,7.50
2023-04-16T15:55:17.978Z,7.53
2023-04-16T15:57:47.805Z,7.53
2023-04-16T16:00:17.245Z,7.54
2023-04-16T16:02:46.474Z,7.51
2023-04-16T16:05:16.819Z,7.51
2023-04-16T16:07:45.005Z,7.53
2023-04-16T16:10:13.984Z,7.51
2023-04-16T16:12:41.842Z,7.54
2023-04-16T16:15:11.140Z,7.55
2023-04-16T16:17:39.298Z,7.54
2023-04-16T16:20:10.424Z,7.57
2023-04-16T16:22:40.632Z,7.57
2023-04-16T16:25:10.172Z,7.59
2023-04-16T16:27:38.096Z,7.57
2023-04-16T16:30:07.537Z,7.54
2023-04-16T16:32:35.951Z,7.59
2023-04-16T16:35:04.303Z,7.57
2023-04-16T16:37:32.270Z,7.58
2023-04-16T16:40:01.402Z,7.57
2023-04-16T16:42:29.410Z,7.50
2023-04-16T16:44:57.603Z,7.59
2023-04-16T16:47:25.719Z,7.55
2023-04-16T16:49:54.661Z,7.59
2023-04-16T16:52:24.653Z,7.55
2023-04-16T16:54:52.512Z,7.49
2023-04-16T16:57:21.773Z,7.52
2023-04-16T16:59:50.392Z,7.54
2023-04-16T17:02:18.308Z,7.47
2023-04-16T17:04:46.297Z,7.52
2023-04-16T17:07:19.225Z,7.53
2023-04-16T17:09:47.080Z,7.52
2023-04-16T17:12:14.899Z,7.52
2023-04-16T17:14:44.093Z,7.46
2023-04-16T17:17:11.963Z,7.47
2023-04-16T17:19:39.983Z,7.49
2023-04-16T17:22:08.478Z,7.51
2023-04-16T17:24:36.481Z,7.46
2023-04-16T17:27:04.750Z,7.51
2023-04-16T17:29:32.623Z,7.48
2023-04-16T17:32:01.922Z,7.49
2023-04-16T17:34:29.850Z,7.48
2023-04-16T17:36:57.664Z,7.49
2023-04-16T17:39:25.484Z,7.45
2023-04-16T17:41:54.787Z,7.48
2023-04-16T17:44:25.587Z,7.46
2023-04-16T17:46:53.395Z,7.46
2023-04-16T17:49:22.789Z,7.48
2023-04-16T17:51:50.589Z,7.42
2023-04-16T17:54:18.409Z,7.45
2023-04-16T17:56:46.529Z,7.47
2023-04-16T17:59:14.387Z,7.44
2023-04-16T18:01:42.406Z,7.43
2023-04-16T18:04:10.863Z,7.41
2023-04-16T18:06:40.481Z,7.47
2023-04-16T18:09:08.354Z,7.47
2023-04-16T18:11:36.266Z,7.48
2023-04-16T18:14:04.090Z,7.50
2023-04-16T18:16:32.277Z,7.43
2023-04-16T18:19:00.120Z,7.44
2023-04-16T18:21:29.796Z,7.45
2023-04-16T18:24:00.861Z,7.43
2023-04-16T18:26:29.997Z,7.44
2023-04-16T18:28:57.939Z,7.48
2023-04-16T18:31:26.812Z,7.47
2023-04-16T18:33:58.049Z,7.50
2023-04-16T18:36:27.235Z,7.54
2023-04-16T18:41:28.206Z,7.47
2023-04-16T18:43:56.176Z,7.49
2023-04-16T18:46:24.121Z,7.47
2023-04-16T18:48:52.053Z,7.47
2023-04-16T18:51:19.982Z,7.46
2023-04-16T18:53:47.904Z,7.49
2023-04-16T18:56:15.680Z,7.46
2023-04-16T18:58:44.878Z,7.43
2023-04-16T19:01:13.958Z,7.49
2023-04-16T19:03:42.043Z,7.49
2023-04-16T19:06:10.732Z,7.51
2023-04-16T19:08:38.675Z,7.50
2023-04-16T19:11:06.656Z,7.46
2023-04-16T19:13:34.539Z,7.45
2023-04-16T19:16:06.004Z,7.49
2023-04-16T19:18:34.088Z,7.49
2023-04-16T19:21:02.152Z,7.50
2023-04-16T19:23:30.123Z,7.43
2023-04-16T19:25:58.003Z,7.45
2023-04-16T19:28:25.994Z,7.50
2023-04-16T19:30:54.269Z,7.52
2023-04-16T19:33:23.574Z,7.54
2023-04-16T19:35:51.417Z,7.52
2023-04-16T19:38:19.351Z,7.50
2023-04-16T19:40:49.285Z,7.52
2023-04-16T19:43:17.144Z,7.50
2023-04-16T19:45:45.102Z,7.52
2023-04-16T19:48:13.279Z,7.54
2023-04-16T19:50:43.513Z,7.49
2023-04-16T19:53:11.844Z,7.52
2023-04-16T19:55:40.576Z,7.51
2023-04-16T19:58:08.470Z,7.49
2023-04-16T20:00:38.460Z,7.50
2023-04-16T20:03:06.615Z,7.51
2023-04-16T20:05:34.457Z,7.51
2023-04-16T20:08:03.698Z,7.47
2023-04-16T20:10:31.948Z,7.45
2023-04-16T20:12:59.817Z,7.49
2023-04-16T20:15:27.746Z,7.50
2023-04-16T20:17:56.107Z,7.50
2023-04-16T20:20:24.175Z,7.51
2023-04-16T20:22:52.044Z,7.48
2023-04-16T20:25:21.628Z,7.50
2023-04-16T20:27:49.416Z,7.50
2023-04-16T20:30:17.376Z,7.50
2023-04-16T20:32:45.353Z,7.49
2023-04-16T20:35:13.164Z,7.50
2023-04-16T20:37:43.148Z,7.47
2023-04-16T20:40:13.845Z,7.50
2023-04-16T20:42:46.290Z,7.46
2023-04-16T20:45:14.433Z,7.49
2023-04-16T20:47:44.535Z,7.46
2023-04-16T20:50:12.632Z,7.47
2023-04-16T20:52:42.238Z,7.44
2023-04-16T20:55:10.857Z,7.47
2023-04-16T20:57:39.180Z,7.47
2023-04-16T21:00:12.070Z,7.46
2023-04-16T21:02:40.158Z,7.43
2023-04-16T21:05:10.469Z,7.43
2023-04-16T21:07:38.311Z,7.43
2023-04-16T21:10:07.079Z,7.41
2023-04-16T21:12:34.839Z,7.43
2023-04-16T21:15:02.954Z,7.37
2023-04-16T21:17:32.931Z,7.41
2023-04-16T21:20:01.947Z,7.41
2023-04-16T21:22:29.731Z,7.42
2023-04-16T21:24:57.588Z,7.37
2023-04-16T21:27:25.421Z,7.36
2023-04-16T21:29:53.177Z,7.37
2023-04-16T21:32:21.010Z,7.37
2023-04-16T21:34:50.156Z,7.35
2023-04-16T21:37:18.095Z,7.33
2023-04-16T21:39:46.155Z,7.33
2023-04-16T21:42:13.961Z,7.33
2023-04-16T21:44:41.839Z,7.37
2023-04-16T21:47:09.701Z,7.34
2023-04-16T21:49:37.482Z,7.31
2023-04-16T21:52:13.998Z,7.36
2023-04-16T21:54:42.113Z,7.35
2023-04-16T21:57:10.011Z,7.32
2023-04-16T21:59:37.982Z,7.33
2023-04-16T22:02:06.017Z,7.35
2023-04-16T22:04:38.547Z,7.37
2023-04-16T22:07:09.707Z,7.35
2023-04-16T22:09:37.647Z,7.31
2023-04-16T22:12:06.839Z,7.34
2023-04-16T22:14:35.901Z,7.32
2023-04-16T22:17:04.389Z,7.31
2023-04-16T22:19:32.363Z,7.36
2023-04-16T22:22:00.285Z,7.34
2023-04-16T22:24:29.497Z,7.35
2023-04-16T22:26:57.947Z,7.31
2023-04-16T22:29:25.887Z,7.28
2023-04-16T22:31:55.035Z,7.28
2023-04-16T22:34:22.923Z,7.34
2023-04-16T22:36:50.760Z,7.32
2023-04-16T22:39:18.796Z,7.37
2023-04-16T22:41:48.058Z,7.27
2023-04-16T22:44:15.984Z,7.33
2023-04-16T22:46:45.097Z,7.35
2023-04-16T22:49:13.137Z,7.34
2023-04-16T22:51:41.313Z,7.36
2023-04-16T22:54:13.655Z,7.35
2023-04-16T22:56:41.912Z,7.36
2023-04-16T22:59:11.313Z,7.36
2023-04-16T23:01:39.329Z,7.34
2023-04-16T23:04:07.171Z,7.32
2023-04-16T23:06:35.013Z,7.34
2023-04-16T23:09:03.420Z,7.36
2023-04-16T23:11:31.213Z,7.32
2023-04-16T23:13:59.018Z,7.32
2023-04-16T23:16:28.754Z,7.30
2023-04-16T23:18:56.704Z,7.31
2023-04-16T23:21:24.613Z,7.31
2023-04-16T23:23:52.775Z,7.32
2023-04-16T23:26:20.736Z,7.29
2023-04-16T23:28:48.511Z,7.33
2023-04-16T23:31:16.418Z,7.32
2023-04-16T23:33:45.668Z,7.34
2023-04-16T23:36:13.525Z,7.29
2023-04-16T23:38:41.353Z,7.30
2023-04-16T23:41:09.257Z,7.30
2023-04-16T23:43:39.970Z,7.29
2023-04-16T23:46:08.222Z,7.33
2023-04-16T23:48:36.192Z,7.30
2023-04-16T23:51:05.736Z,7.24
2023-04-16T23:53:33.581Z,7.29
2023-04-16T23:56:01.560Z,7.29
2023-04-16T23:58:29.455Z,7.32
